Terminal Aerodrome Forecast
Issued by NWS Cleveland, OH

Home | Current Version | Previous Version | Text Only | Print | Product List | Glossary On
Versions: 1 2 3 4 5 6 7 8 9 10 11 12 13 14 15 16 17 18 19 20 21 22 23 24 25 26 27 28 29 30 31 32 33
092
FTUS41 KCLE 030215 AAA
TAFCLE
TAF AMD
KCLE 030215Z 0302/0406 28011KT P6SM OVC025
      TEMPO 0303/0307 SCT025 BKN035
     FM031100 27009KT P6SM VCSH OVC020
     FM032000 28009KT P6SM OVC035=

USA.gov is the U.S. government's official web portal to all federal, state and local government web resources and services.